createdAt,value
2018-10-02T00:01:44.323Z,100282.20
2018-10-02T00:04:12.903Z,100276.77
2018-10-02T00:06:41.470Z,100273.39
2018-10-02T00:09:11.933Z,100268.33
2018-10-02T00:11:45.882Z,100267.66
2018-10-02T00:14:19.686Z,100261.83
2018-10-02T00:16:48.305Z,100248.21
2018-10-02T00:19:16.818Z,100246.41
2018-10-02T00:21:45.506Z,100165.89
2018-10-02T00:24:14.214Z,100244.45
2018-10-02T00:26:43.094Z,100233.48
2018-10-02T00:29:11.737Z,100235.93
2018-10-02T00:31:40.665Z,100229.72
2018-10-02T00:34:09.772Z,100226.59
2018-10-02T00:36:38.311Z,100223.59
2018-10-02T00:39:07.820Z,100222.67
2018-10-02T00:41:36.638Z,100217.44
2018-10-02T00:44:05.323Z,100214.70
2018-10-02T00:46:34.030Z,100208.55
2018-10-02T00:49:02.894Z,100142.70
2018-10-02T00:51:31.634Z,100197.07
2018-10-02T00:54:00.280Z,100195.65
2018-10-02T00:56:28.838Z,100197.84
2018-10-02T00:58:57.416Z,100190.80
2018-10-02T01:01:26.039Z,100191.60
2018-10-02T01:03:54.526Z,100189.87
2018-10-02T01:06:23.434Z,100189.43
2018-10-02T01:08:52.948Z,100186.75
2018-10-02T01:11:21.869Z,100189.75
2018-10-02T01:13:50.366Z,100178.52
2018-10-02T01:16:18.990Z,100181.12
2018-10-02T01:18:47.502Z,100173.28
2018-10-02T01:21:16.033Z,100181.12
2018-10-02T01:23:44.855Z,100175.36
2018-10-02T01:26:13.484Z,100167.00
2018-10-02T01:28:42.378Z,100162.14
2018-10-02T01:31:10.938Z,100159.95
2018-10-02T01:33:39.770Z,100156.41
2018-10-02T01:36:09.046Z,100151.50
2018-10-02T01:38:37.706Z,100149.62
2018-10-02T01:41:06.273Z,100148.19
2018-10-02T01:43:34.838Z,100141.04
2018-10-02T01:46:03.938Z,100135.62
2018-10-02T01:48:32.548Z,100133.73
2018-10-02T01:51:01.351Z,100129.63
2018-10-02T01:53:30.625Z,100116.02
2018-10-02T01:55:59.233Z,100113.78
2018-10-02T01:58:28.298Z,100111.83
2018-10-02T02:00:57.013Z,100107.84
2018-10-02T02:03:25.621Z,100106.72
2018-10-02T02:05:54.218Z,100103.98
2018-10-02T02:08:22.837Z,100098.28
2018-10-02T02:10:51.487Z,100102.94
2018-10-02T02:13:20.246Z,100094.13
2018-10-02T02:15:48.767Z,100102.29
2018-10-02T02:18:17.373Z,100097.27
2018-10-02T02:20:46.158Z,100092.02
2018-10-02T02:23:14.684Z,100096.98
2018-10-02T02:25:43.246Z,100098.78
2018-10-02T02:28:11.870Z,100094.42
2018-10-02T02:30:40.645Z,100093.38
2018-10-02T02:33:09.190Z,100099.31
2018-10-02T02:35:38.316Z,100098.96
2018-10-02T02:38:06.902Z,100100.88
2018-10-02T02:40:35.504Z,100095.91
2018-10-02T02:43:04.037Z,100096.14
2018-10-02T02:45:32.594Z,100084.81
2018-10-02T02:48:06.599Z,100091.53
2018-10-02T02:50:40.577Z,100083.43
2018-10-02T02:53:14.166Z,100086.46
2018-10-02T02:55:42.767Z,100075.80
2018-10-02T02:58:11.762Z,100077.33
2018-10-02T03:00:40.380Z,100074.63
2018-10-02T03:03:09.191Z,100070.23
2018-10-02T03:05:37.852Z,100067.14
2018-10-02T03:08:06.426Z,100065.11
2018-10-02T03:10:35.026Z,100071.92
2018-10-02T03:13:03.631Z,100070.67
2018-10-02T03:15:32.435Z,100075.08
2018-10-02T03:18:01.131Z,100067.49
2018-10-02T03:20:29.967Z,100020.49
2018-10-02T03:22:58.501Z,100061.99
2018-10-02T03:25:27.216Z,100065.16
2018-10-02T03:27:56.432Z,100054.00
2018-10-02T03:30:25.061Z,100051.58
2018-10-02T03:32:53.902Z,100048.25
2018-10-02T03:35:22.569Z,100044.67
2018-10-02T03:37:51.495Z,100049.94
2018-10-02T03:40:20.074Z,100048.16
2018-10-02T03:42:49.008Z,100047.38
2018-10-02T03:45:17.537Z,100044.42
2018-10-02T03:47:46.313Z,100040.15
2018-10-02T03:50:14.944Z,100037.92
2018-10-02T03:52:43.486Z,100039.61
2018-10-02T03:55:12.069Z,100031.34
2018-10-02T03:57:40.558Z,100026.11
2018-10-02T04:00:09.442Z,100022.61
2018-10-02T04:02:38.078Z,100020.78
2018-10-02T04:05:07.340Z,100013.45
2018-10-02T04:07:35.957Z,100011.05
2018-10-02T04:10:04.615Z,100009.39
2018-10-02T04:12:33.106Z,99998.52
2018-10-02T04:15:01.593Z,99995.53
2018-10-02T04:17:30.271Z,100001.00
2018-10-02T04:19:58.925Z,99996.09
2018-10-02T04:22:27.682Z,99981.84
2018-10-02T04:24:56.396Z,99983.52
2018-10-02T04:27:25.167Z,99974.39
2018-10-02T04:29:54.049Z,99966.95
2018-10-02T04:32:22.740Z,99970.73
2018-10-02T04:34:51.394Z,99963.96
2018-10-02T04:37:19.903Z,99958.15
2018-10-02T04:39:48.631Z,99951.20
2018-10-02T04:42:17.090Z,99949.30
2018-10-02T04:44:45.838Z,99948.30
2018-10-02T04:47:14.563Z,99945.08
2018-10-02T04:49:43.378Z,99939.55
2018-10-02T04:52:12.026Z,99874.75
2018-10-02T04:54:40.696Z,99930.72
2018-10-02T04:57:09.410Z,99924.50
2018-10-02T04:59:38.136Z,99920.95
2018-10-02T05:02:07.127Z,99876.66
2018-10-02T05:04:35.657Z,99926.95
2018-10-02T05:07:04.520Z,99918.67
2018-10-02T05:09:33.059Z,99909.85
2018-10-02T05:12:01.755Z,99898.72
2018-10-02T05:14:30.323Z,99908.72
2018-10-02T05:16:59.032Z,99907.03
2018-10-02T05:19:27.883Z,99902.21
2018-10-02T05:21:56.570Z,99910.97
2018-10-02T05:24:25.440Z,99911.34
2018-10-02T05:26:53.974Z,99911.43
2018-10-02T05:29:23.012Z,99900.15
2018-10-02T05:31:51.675Z,99894.77
2018-10-02T05:34:20.256Z,99910.39
2018-10-02T05:36:48.985Z,99908.34
2018-10-02T05:39:17.589Z,99919.08
2018-10-02T05:41:46.406Z,99916.81
2018-10-02T05:44:15.605Z,99910.41
2018-10-02T05:46:44.749Z,99912.45
2018-10-02T05:49:13.279Z,99902.64
2018-10-02T05:51:42.237Z,99900.78
2018-10-02T05:54:10.774Z,99913.28
2018-10-02T05:56:39.350Z,99902.06
2018-10-02T05:59:07.955Z,99899.15
2018-10-02T06:01:36.598Z,99902.23
2018-10-02T06:04:05.548Z,99900.92
2018-10-02T06:06:34.085Z,99890.29
2018-10-02T06:09:03.355Z,99842.14
2018-10-02T06:11:32.016Z,99903.36
2018-10-02T06:14:00.678Z,99893.28
2018-10-02T06:16:29.225Z,99884.47
2018-10-02T06:18:57.931Z,99884.92
2018-10-02T06:21:26.564Z,99882.66
2018-10-02T06:23:55.466Z,99884.38
2018-10-02T06:26:24.191Z,99882.48
2018-10-02T06:28:52.694Z,99879.02
2018-10-02T06:31:21.596Z,99869.70
2018-10-02T06:33:50.138Z,99870.63
2018-10-02T06:36:18.781Z,99865.75
2018-10-02T06:38:47.391Z,99864.44
2018-10-02T06:41:15.840Z,99862.91
2018-10-02T06:43:44.739Z,99856.72
2018-10-02T06:46:13.314Z,99857.55
2018-10-02T06:48:42.334Z,99852.19
2018-10-02T06:51:10.888Z,99838.83
2018-10-02T06:53:39.904Z,99842.23
2018-10-02T06:56:08.492Z,99838.64
2018-10-02T06:58:37.096Z,99833.19
2018-10-02T07:01:05.704Z,99827.92
2018-10-02T07:03:34.227Z,99828.78
2018-10-02T07:06:03.138Z,99785.75
2018-10-02T07:08:31.690Z,99823.05
2018-10-02T07:11:00.406Z,99830.74
2018-10-02T07:13:29.041Z,99824.34
2018-10-02T07:15:57.651Z,99814.94
2018-10-02T07:18:26.208Z,99809.12
2018-10-02T07:20:54.770Z,99815.11
2018-10-02T07:23:23.579Z,99805.16
2018-10-02T07:25:52.110Z,99809.78
2018-10-02T07:28:21.028Z,99800.55
2018-10-02T07:30:49.769Z,99792.91
2018-10-02T07:33:18.462Z,99796.13
2018-10-02T07:35:47.107Z,99792.53
2018-10-02T07:38:15.650Z,99775.04
2018-10-02T07:40:44.216Z,99773.36
2018-10-02T07:43:12.795Z,99767.50
2018-10-02T07:45:41.539Z,99763.37
2018-10-02T07:48:10.170Z,99762.70
2018-10-02T07:50:39.165Z,99658.44
2018-10-02T07:53:07.779Z,99745.67
2018-10-02T07:55:36.535Z,99747.94
2018-10-02T07:58:05.171Z,99740.39
2018-10-02T08:00:33.779Z,99723.66
2018-10-02T08:03:02.357Z,99728.37
2018-10-02T08:05:30.882Z,99723.86
2018-10-02T08:07:59.718Z,99714.81
2018-10-02T08:10:28.264Z,99718.56
2018-10-02T08:12:57.225Z,99707.66
2018-10-02T08:15:25.800Z,99697.13
2018-10-02T08:17:54.452Z,99695.45
2018-10-02T08:20:23.162Z,99690.91
2018-10-02T08:22:51.678Z,99622.48
2018-10-02T08:25:20.482Z,99677.34
2018-10-02T08:27:48.992Z,99662.66
2018-10-02T08:30:17.847Z,99659.86
2018-10-02T08:32:46.692Z,99638.61
2018-10-02T08:35:15.362Z,99638.78
2018-10-02T08:37:44.245Z,99630.11
2018-10-02T08:40:12.920Z,99624.55
2018-10-02T08:42:41.451Z,99622.58
2018-10-02T08:45:10.194Z,99618.16
2018-10-02T08:47:38.875Z,99593.23
2018-10-02T08:50:07.507Z,99601.49
2018-10-02T08:52:36.402Z,99582.84
2018-10-02T08:55:05.459Z,99580.02
2018-10-02T08:57:34.368Z,99564.96
2018-10-02T09:00:03.007Z,99564.60
2018-10-02T09:02:31.566Z,99549.81
2018-10-02T09:05:00.186Z,99533.33
2018-10-02T09:07:28.702Z,99531.31
2018-10-02T09:09:57.395Z,99518.14
2018-10-02T09:12:25.941Z,99512.56
2018-10-02T09:14:54.530Z,99510.83
2018-10-02T09:17:23.148Z,99493.28
2018-10-02T09:19:51.785Z,99475.79
2018-10-02T09:22:20.378Z,99476.59
2018-10-02T09:24:48.909Z,99473.84
2018-10-02T09:27:17.762Z,99454.64
2018-10-02T09:29:51.466Z,99447.41
2018-10-02T09:32:25.246Z,99425.38
2018-10-02T09:34:59.052Z,99418.21
2018-10-02T09:38:30.472Z,99424.27
2018-10-02T09:41:04.274Z,99411.69
2018-10-02T09:43:38.999Z,99390.48
2018-10-02T09:46:07.802Z,99397.22
2018-10-02T09:48:36.340Z,99380.98
2018-10-02T09:51:05.347Z,99375.72
2018-10-02T09:53:34.090Z,99370.98
2018-10-02T09:56:03.308Z,99355.67
2018-10-02T09:58:31.907Z,99350.36
2018-10-02T10:01:05.566Z,99339.42
2018-10-02T10:03:34.398Z,99334.89
2018-10-02T10:06:03.148Z,99322.72
2018-10-02T10:08:31.731Z,99312.89
2018-10-02T10:11:00.315Z,99304.62
2018-10-02T10:13:28.948Z,99297.75
2018-10-02T10:15:57.535Z,99278.95
2018-10-02T10:18:26.178Z,99260.71
2018-10-02T10:20:54.897Z,99242.84
2018-10-02T10:23:23.849Z,99188.14
2018-10-02T10:25:52.382Z,99215.17
2018-10-02T10:28:21.504Z,99204.41
2018-10-02T10:30:50.030Z,99194.17
2018-10-02T10:33:18.924Z,99196.80
2018-10-02T10:35:47.495Z,99188.16
2018-10-02T10:38:16.203Z,99169.70
2018-10-02T10:40:44.856Z,99143.88
2018-10-02T10:43:13.447Z,99163.20
2018-10-02T10:45:42.002Z,99166.64
2018-10-02T10:48:10.532Z,99166.91
2018-10-02T10:50:39.794Z,99148.93
2018-10-02T10:53:08.409Z,99134.44
2018-10-02T10:55:38.441Z,99129.05
2018-10-02T10:58:07.050Z,99116.73
2018-10-02T11:00:35.799Z,99108.95
2018-10-02T11:03:04.497Z,99083.18
2018-10-02T11:05:32.998Z,99086.44
2018-10-02T11:08:01.814Z,99025.13
2018-10-02T11:10:30.354Z,99074.37
2018-10-02T11:12:59.294Z,99039.63
2018-10-02T11:15:29.853Z,99042.74
2018-10-02T11:17:59.114Z,98990.20
2018-10-02T11:20:32.118Z,99013.52
2018-10-02T11:23:00.619Z,99013.79
2018-10-02T11:25:29.317Z,99006.58
2018-10-02T11:27:57.953Z,98986.96
2018-10-02T11:30:26.596Z,98981.45
2018-10-02T11:32:55.325Z,98976.65
2018-10-02T11:35:24.068Z,98962.05
2018-10-02T11:37:52.644Z,98966.73
2018-10-02T11:40:21.277Z,98946.58
2018-10-02T11:42:50.264Z,98943.95
2018-10-02T11:45:18.898Z,98956.20
2018-10-02T11:47:47.451Z,98932.66
2018-10-02T11:50:16.325Z,98916.23
2018-10-02T11:52:45.881Z,98938.28
2018-10-02T11:55:14.784Z,98933.60
2018-10-02T11:57:43.301Z,98935.82
2018-10-02T12:00:12.334Z,98915.42
2018-10-02T12:02:40.876Z,98908.94
2018-10-02T12:05:09.622Z,98919.03
2018-10-02T12:07:38.294Z,98913.59
2018-10-02T12:10:06.927Z,98912.03
2018-10-02T12:12:35.518Z,98906.24
2018-10-02T12:15:04.122Z,98896.78
2018-10-02T12:17:32.935Z,98898.53
2018-10-02T12:20:01.602Z,98892.97
2018-10-02T12:22:30.340Z,98885.97
2018-10-02T12:24:58.835Z,98884.77
2018-10-02T12:27:27.691Z,98885.06
2018-10-02T12:29:56.355Z,98880.40
2018-10-02T12:32:24.891Z,98868.50
2018-10-02T12:34:53.530Z,98854.14
2018-10-02T12:37:22.026Z,98849.55
2018-10-02T12:39:50.782Z,98838.88
2018-10-02T12:42:19.432Z,98825.11
2018-10-02T12:44:48.061Z,98825.52
2018-10-02T12:47:16.656Z,98822.42
2018-10-02T12:49:45.214Z,98800.05
2018-10-02T12:52:13.824Z,98774.27
2018-10-02T12:54:42.387Z,98809.25
2018-10-02T12:57:11.394Z,98814.38
2018-10-02T12:59:39.922Z,98797.08
2018-10-02T13:02:08.679Z,98800.13
2018-10-02T13:04:37.282Z,98798.34
2018-10-02T13:07:05.985Z,98792.36
2018-10-02T13:09:34.470Z,98786.66
2018-10-02T13:12:03.041Z,98777.06
2018-10-02T13:14:31.932Z,98782.05
2018-10-02T13:17:00.414Z,98777.23
2018-10-02T13:19:29.298Z,98770.18
2018-10-02T13:21:57.883Z,98770.99
2018-10-02T13:24:26.434Z,98788.95
2018-10-02T13:26:54.978Z,98775.74
2018-10-02T13:29:23.458Z,98762.73
2018-10-02T13:31:53.546Z,98724.80
2018-10-02T13:34:23.115Z,98757.10
2018-10-02T13:36:51.839Z,98753.86
2018-10-02T13:39:20.345Z,98750.61
2018-10-02T13:41:49.393Z,98738.95
2018-10-02T13:44:17.867Z,98760.07
2018-10-02T13:46:46.761Z,98769.66
2018-10-02T13:49:15.241Z,98776.14
2018-10-02T13:51:43.938Z,98774.28
2018-10-02T13:54:12.519Z,98752.52
2018-10-02T13:56:41.078Z,98764.08
2018-10-02T13:59:09.774Z,98664.85
2018-10-02T14:01:38.370Z,98754.58
2018-10-02T14:04:07.268Z,98742.16
2018-10-02T14:06:35.749Z,98741.86
2018-10-02T14:09:05.625Z,98742.92
2018-10-02T14:11:34.174Z,98737.55
2018-10-02T14:14:02.859Z,98748.19
2018-10-02T14:16:32.178Z,98733.72
2018-10-02T14:19:00.899Z,98740.67
2018-10-02T14:21:29.588Z,98746.78
2018-10-02T14:23:58.146Z,98730.63
2018-10-02T14:26:27.084Z,98679.88
2018-10-02T14:28:55.582Z,98728.94
2018-10-02T14:31:24.388Z,98662.93
2018-10-02T14:33:53.006Z,98719.00
2018-10-02T14:36:21.619Z,98735.68
2018-10-02T14:38:50.099Z,98730.16
2018-10-02T14:41:18.668Z,98725.87
2018-10-02T14:43:47.370Z,98726.00
2018-10-02T14:46:15.947Z,98715.88
2018-10-02T14:48:45.242Z,98624.73
2018-10-02T14:51:13.731Z,98702.16
2018-10-02T14:53:42.273Z,98700.97
2018-10-02T14:56:10.843Z,98706.05
2018-10-02T14:58:39.340Z,98697.48
2018-10-02T15:01:07.982Z,98709.11
2018-10-02T15:03:36.542Z,98699.78
2018-10-02T15:06:05.442Z,98706.19
2018-10-02T15:08:34.882Z,98698.13
2018-10-02T15:11:03.619Z,98653.10
2018-10-02T15:13:32.515Z,98699.52
2018-10-02T15:16:01.226Z,98702.45
2018-10-02T15:18:29.834Z,98699.67
2018-10-02T15:20:58.714Z,98695.77
2018-10-02T15:23:27.305Z,98694.25
2018-10-02T15:25:55.847Z,98703.58
2018-10-02T15:28:24.682Z,98692.42
2018-10-02T15:30:53.223Z,98697.98
2018-10-02T15:33:22.117Z,98691.09
2018-10-02T15:35:50.741Z,98696.32
2018-10-02T15:38:19.424Z,98690.97
2018-10-02T15:40:47.978Z,98684.53
2018-10-02T15:43:16.574Z,98679.17
2018-10-02T15:45:45.238Z,98681.11
2018-10-02T15:48:13.784Z,98679.00
2018-10-02T15:50:42.672Z,98618.93
2018-10-02T15:53:11.190Z,98684.48
2018-10-02T15:55:40.190Z,98683.17
2018-10-02T15:58:08.761Z,98692.95
2018-10-02T16:00:37.476Z,98671.40
2018-10-02T16:03:05.998Z,98674.38
2018-10-02T16:05:34.587Z,98668.96
2018-10-02T16:08:03.483Z,98668.83
2018-10-02T16:10:32.056Z,98662.48
2018-10-02T16:13:01.014Z,98660.19
2018-10-02T16:15:29.578Z,98668.38
2018-10-02T16:17:58.435Z,98681.59
2018-10-02T16:20:27.188Z,98655.44
2018-10-02T16:22:55.977Z,98672.81
2018-10-02T16:25:24.590Z,98656.48
2018-10-02T16:27:53.123Z,98676.44
2018-10-02T16:30:21.804Z,98564.03
2018-10-02T16:32:50.326Z,98661.11
2018-10-02T16:35:19.141Z,98660.74
2018-10-02T16:37:47.705Z,98658.37
2018-10-02T16:40:16.522Z,98661.65
2018-10-02T16:42:44.896Z,98653.75
2018-10-02T16:45:13.385Z,98660.08
2018-10-02T16:47:42.241Z,98657.23
2018-10-02T16:50:10.741Z,98662.86
2018-10-02T16:52:39.538Z,98578.81
2018-10-02T16:55:07.690Z,98663.26
2018-10-02T16:57:36.222Z,98669.05
2018-10-02T17:00:05.434Z,98663.39
2018-10-02T17:02:34.050Z,98662.70
2018-10-02T17:05:02.878Z,98665.88
2018-10-02T17:07:31.531Z,98663.58
2018-10-02T17:10:00.638Z,98673.88
2018-10-02T17:12:29.138Z,98657.95
2018-10-02T17:14:58.042Z,98654.70
2018-10-02T17:17:26.604Z,98659.35
2018-10-02T17:19:55.302Z,98660.54
2018-10-02T17:22:23.899Z,98662.84
2018-10-02T17:24:52.535Z,98668.13
2018-10-02T17:27:21.182Z,98672.14
2018-10-02T17:29:49.686Z,98661.46
2018-10-02T17:32:18.414Z,98658.69
2018-10-02T17:34:47.108Z,98651.41
2018-10-02T17:37:15.662Z,98648.89
2018-10-02T17:39:44.206Z,98656.23
2018-10-02T17:42:12.903Z,98653.73
2018-10-02T17:44:41.622Z,98649.95
2018-10-02T17:47:10.562Z,98655.57
2018-10-02T17:49:39.442Z,98646.85
2018-10-02T17:52:08.439Z,98633.66
2018-10-02T17:54:37.420Z,98640.86
2018-10-02T17:57:05.908Z,98634.09
2018-10-02T17:59:34.566Z,98640.70
2018-10-02T18:02:03.215Z,98632.98
2018-10-02T18:04:31.687Z,98626.25
2018-10-02T18:07:00.768Z,98627.10
2018-10-02T18:09:30.561Z,98633.12
2018-10-02T18:11:59.899Z,98638.05
2018-10-02T18:14:30.556Z,98631.84
2018-10-02T18:17:00.794Z,98601.30
2018-10-02T18:19:30.490Z,98641.47
2018-10-02T18:21:59.350Z,98643.77
2018-10-02T18:24:28.317Z,98648.08
2018-10-02T18:26:57.087Z,98643.86
2018-10-02T18:29:25.679Z,98641.91
2018-10-02T18:31:54.398Z,98645.00
2018-10-02T18:34:22.931Z,98638.27
2018-10-02T18:36:52.725Z,98636.95
2018-10-02T18:39:21.291Z,98641.25
2018-10-02T18:41:50.035Z,98643.63
2018-10-02T18:44:18.782Z,98641.57
2018-10-02T18:46:47.410Z,98638.59
2018-10-02T18:49:15.974Z,98645.45
2018-10-02T18:51:44.535Z,98650.02
2018-10-02T18:54:13.313Z,98655.30
2018-10-02T18:56:48.645Z,98646.05
2018-10-02T18:59:17.227Z,98633.91
2018-10-02T19:01:46.044Z,98637.88
2018-10-02T19:04:14.641Z,98633.06
2018-10-02T19:06:43.211Z,98641.12
2018-10-02T19:09:17.202Z,98648.95
2018-10-02T19:11:51.242Z,98608.48
2018-10-02T19:14:20.713Z,98646.23
2018-10-02T19:16:49.199Z,98653.70
2018-10-02T19:19:23.091Z,98658.42
2018-10-02T19:21:51.637Z,98661.88
2018-10-02T19:24:20.174Z,98667.66
2018-10-02T19:26:48.746Z,98671.37
2018-10-02T19:29:17.442Z,98673.66
2018-10-02T19:31:51.278Z,98670.56
2018-10-02T19:34:19.895Z,98654.45
2018-10-02T19:36:48.395Z,98676.01
2018-10-02T19:39:22.232Z,98676.61
2018-10-02T19:41:51.466Z,98683.59
2018-10-02T19:44:19.955Z,98672.70
2018-10-02T19:46:53.923Z,98683.28
2018-10-02T19:49:23.918Z,98689.81
2018-10-02T19:52:13.403Z,98688.88
2018-10-02T19:54:42.144Z,98697.05
2018-10-02T19:57:12.246Z,98699.34
2018-10-02T19:59:40.896Z,98706.55
2018-10-02T20:02:09.466Z,98705.97
2018-10-02T20:04:38.566Z,98725.52
2018-10-02T20:07:08.167Z,98731.04
2018-10-02T20:09:36.971Z,98733.67
2018-10-02T20:12:05.506Z,98742.29
2018-10-02T20:14:34.449Z,98746.50
2018-10-02T20:17:03.001Z,98757.63
2018-10-02T20:19:31.638Z,98758.69
2018-10-02T20:22:00.307Z,98765.84
2018-10-02T20:24:28.840Z,98769.98
2018-10-02T20:26:57.593Z,98769.23
2018-10-02T20:29:26.171Z,98787.93
2018-10-02T20:31:54.924Z,98797.95
2018-10-02T20:34:23.541Z,98802.70
2018-10-02T20:36:52.139Z,98815.28
2018-10-02T20:39:20.614Z,98812.33
2018-10-02T20:41:49.155Z,98802.48
2018-10-02T20:44:17.783Z,98763.70
2018-10-02T20:46:46.993Z,98806.97
2018-10-02T20:49:15.800Z,98818.65
2018-10-02T20:51:44.219Z,98823.41
2018-10-02T20:54:13.290Z,98826.22
2018-10-02T20:56:41.839Z,98828.23
2018-10-02T20:59:10.374Z,98829.72
2018-10-02T21:01:39.038Z,98833.00
2018-10-02T21:04:07.822Z,98843.56
2018-10-02T21:06:36.550Z,98823.13
2018-10-02T21:09:06.328Z,98851.22
2018-10-02T21:11:35.070Z,98861.45
2018-10-02T21:14:03.612Z,98863.22
2018-10-02T21:16:32.331Z,98865.45
2018-10-02T21:19:00.930Z,98877.38
2018-10-02T21:21:29.450Z,98878.91
2018-10-02T21:23:57.998Z,98895.19
2018-10-02T21:26:26.502Z,98893.23
2018-10-02T21:28:55.359Z,98905.38
2018-10-02T21:31:23.909Z,98907.66
2018-10-02T21:33:52.616Z,98839.93
2018-10-02T21:36:21.225Z,98920.28
2018-10-02T21:38:49.842Z,98926.20
2018-10-02T21:41:18.334Z,98932.77
2018-10-02T21:43:46.889Z,98940.03
2018-10-02T21:46:15.624Z,98904.00
2018-10-02T21:48:44.144Z,98957.30
2018-10-02T21:51:12.866Z,98965.94
2018-10-02T21:53:41.391Z,98962.91
2018-10-02T21:56:10.253Z,98963.11
2018-10-02T21:58:39.516Z,98971.73
2018-10-02T22:01:08.216Z,98977.75
2018-10-02T22:03:39.589Z,98984.34
2018-10-02T22:06:08.632Z,98989.80
2018-10-02T22:08:37.328Z,98995.91
2018-10-02T22:11:06.035Z,98993.58
2018-10-02T22:13:34.579Z,99002.59
2018-10-02T22:16:03.085Z,99011.39
2018-10-02T22:18:31.830Z,98972.13
2018-10-02T22:21:00.337Z,99018.92
2018-10-02T22:23:29.210Z,99028.14
2018-10-02T22:25:58.414Z,99041.55
2018-10-02T22:28:27.291Z,99039.02
2018-10-02T22:30:55.811Z,99046.68
2018-10-02T22:33:24.511Z,99053.83
2018-10-02T22:35:53.031Z,99058.05
2018-10-02T22:38:21.743Z,99061.48
2018-10-02T22:40:50.466Z,99023.32
2018-10-02T22:43:19.032Z,99066.01
2018-10-02T22:45:47.778Z,99026.78
2018-10-02T22:48:16.334Z,99081.08
2018-10-02T22:50:45.126Z,99085.30
2018-10-02T22:53:13.717Z,99090.72
2018-10-02T22:55:42.270Z,99098.39
2018-10-02T22:58:10.756Z,99037.35
2018-10-02T23:00:39.374Z,99108.32
2018-10-02T23:03:08.204Z,99116.95
2018-10-02T23:05:36.704Z,99118.16
2018-10-02T23:08:05.378Z,99132.41
2018-10-02T23:10:33.903Z,99140.95
2018-10-02T23:13:02.535Z,99148.81
2018-10-02T23:15:31.156Z,99150.30
2018-10-02T23:17:59.762Z,99150.30
2018-10-02T23:20:28.550Z,99166.05
2018-10-02T23:22:57.104Z,99160.24
2018-10-02T23:25:25.848Z,99169.42
2018-10-02T23:27:54.452Z,99169.42
2018-10-02T23:30:23.065Z,99176.54
2018-10-02T23:32:51.728Z,99182.55
2018-10-02T23:35:20.242Z,99181.97
2018-10-02T23:37:49.142Z,99194.52
2018-10-02T23:40:17.684Z,99197.98
2018-10-02T23:42:46.338Z,99199.20
2018-10-02T23:45:15.122Z,99203.14
2018-10-02T23:47:43.741Z,99212.51
2018-10-02T23:50:12.294Z,99222.81
2018-10-02T23:52:40.822Z,99219.28
2018-10-02T23:55:09.528Z,99222.63
2018-10-02T23:57:38.113Z,99226.20
